createdAt,value
2022-12-01T00:02:34.725Z,102345.03
2022-12-01T00:07:37.540Z,102343.25
2022-12-01T00:12:43.428Z,102325.16
2022-12-01T00:17:47.594Z,102340.75
2022-12-01T00:22:50.705Z,102315.78
2022-12-01T00:27:54.866Z,102347.63
2022-12-01T00:32:57.415Z,102332.94
2022-12-01T00:37:59.979Z,102339.72
2022-12-01T00:43:03.873Z,102333.75
2022-12-01T00:48:06.579Z,102343.44
2022-12-01T00:53:09.668Z,102341.56
2022-12-01T00:58:13.746Z,102309.84
2022-12-01T01:03:16.518Z,102345.22
2022-12-01T01:08:19.098Z,102352.16
2022-12-01T01:13:22.955Z,102357.66
2022-12-01T01:18:25.736Z,102362.91
2022-12-01T01:23:28.562Z,102369.00
2022-12-01T01:28:33.494Z,102364.66
2022-12-01T01:33:36.033Z,102378.91
2022-12-01T01:38:38.706Z,102365.75
2022-12-01T01:43:45.685Z,102382.38
2022-12-01T01:48:51.094Z,102378.59
2022-12-01T01:53:57.384Z,102389.19
2022-12-01T01:59:01.814Z,102377.00
2022-12-01T02:04:05.272Z,102358.81
2022-12-01T02:09:07.967Z,102384.03
2022-12-01T02:14:24.986Z,102380.47
2022-12-01T02:19:54.723Z,102350.84
2022-12-01T02:25:23.550Z,102367.88
2022-12-01T02:30:40.154Z,102376.91
2022-12-01T02:35:48.913Z,102373.31
2022-12-01T02:40:57.919Z,102371.63
2022-12-01T02:46:10.155Z,102371.63
2022-12-01T02:51:15.755Z,102372.47
2022-12-01T02:56:22.514Z,102372.47
2022-12-01T03:01:52.456Z,102371.91
2022-12-01T03:07:01.490Z,102371.84
2022-12-01T03:12:12.369Z,102374.38
2022-12-01T03:17:24.934Z,102372.47
2022-12-01T03:22:32.949Z,102363.09
2022-12-01T03:27:44.068Z,102375.50
2022-12-01T03:33:00.973Z,102372.91
2022-12-01T03:38:11.814Z,102352.09
2022-12-01T03:43:20.200Z,102382.38
2022-12-01T03:48:24.592Z,102382.50
2022-12-01T03:53:32.610Z,102378.97
2022-12-01T03:58:40.637Z,102386.69
2022-12-01T04:03:46.395Z,102384.03
2022-12-01T04:08:48.921Z,102380.78
2022-12-01T04:13:51.446Z,102382.63
2022-12-01T04:18:57.210Z,102389.75
2022-12-01T04:24:02.974Z,102380.13
2022-12-01T04:29:07.968Z,102384.38
2022-12-01T04:34:12.107Z,102387.91
2022-12-01T04:39:14.825Z,102395.13
2022-12-01T04:44:17.342Z,102383.53
2022-12-01T04:49:22.001Z,102377.94
2022-12-01T04:54:24.899Z,102381.22
2022-12-01T04:59:27.728Z,102388.13
2022-12-01T05:04:33.790Z,102377.66
2022-12-01T05:09:36.516Z,102373.16
2022-12-01T05:14:39.249Z,102372.34
2022-12-01T05:20:01.081Z,102379.34
2022-12-01T05:25:04.418Z,102382.00
2022-12-01T05:30:08.260Z,102386.31
2022-12-01T05:35:12.873Z,102389.06
2022-12-01T05:40:15.543Z,102394.47
2022-12-01T05:45:18.554Z,102400.47
2022-12-01T05:50:22.495Z,102396.94
2022-12-01T05:55:25.109Z,102400.28
2022-12-01T06:00:28.060Z,102396.06
2022-12-01T06:05:32.662Z,102395.22
2022-12-01T06:10:35.397Z,102391.56
2022-12-01T06:15:38.235Z,102401.22
2022-12-01T06:20:42.094Z,102397.78
2022-12-01T06:25:44.743Z,102400.38
2022-12-01T06:30:47.383Z,102400.47
2022-12-01T06:35:58.358Z,102397.75
2022-12-01T06:41:00.929Z,102404.63
2022-12-01T06:46:04.290Z,102412.44
2022-12-01T06:51:10.878Z,102410.94
2022-12-01T06:56:13.674Z,102421.44
2022-12-01T07:01:17.670Z,102422.19
2022-12-01T07:06:21.738Z,102433.78
2022-12-01T07:11:24.505Z,102432.88
2022-12-01T07:16:27.140Z,102414.50
2022-12-01T07:21:31.209Z,102434.63
2022-12-01T07:26:33.820Z,102430.13
2022-12-01T07:31:36.718Z,102430.97
2022-12-01T07:36:40.782Z,102437.00
2022-12-01T07:41:43.374Z,102438.81
2022-12-01T07:46:45.928Z,102437.03
2022-12-01T07:51:49.819Z,102446.72
2022-12-01T07:56:52.413Z,102451.94
2022-12-01T08:01:54.977Z,102446.75
2022-12-01T08:06:58.922Z,102445.81
2022-12-01T08:12:02.245Z,102449.47
2022-12-01T08:17:04.770Z,102457.19
2022-12-01T08:22:08.638Z,102446.63
2022-12-01T08:27:11.161Z,102434.03
2022-12-01T08:32:13.698Z,102464.31
2022-12-01T08:37:17.561Z,102467.13
2022-12-01T08:42:20.992Z,102468.13
2022-12-01T08:47:23.723Z,102474.25
2022-12-01T08:52:32.743Z,102479.44
2022-12-01T08:57:35.337Z,102468.84
2022-12-01T09:02:37.998Z,102470.41
2022-12-01T09:07:42.776Z,102469.53
2022-12-01T09:12:45.355Z,102476.50
2022-12-01T09:17:47.887Z,102475.63
2022-12-01T09:22:51.793Z,102485.25
2022-12-01T09:27:54.339Z,102483.50
2022-12-01T09:32:56.878Z,102483.47
2022-12-01T09:38:00.899Z,102485.19
2022-12-01T09:43:06.969Z,102492.91
2022-12-01T09:48:20.899Z,102484.13
2022-12-01T09:53:28.760Z,102490.34
2022-12-01T09:58:31.681Z,102485.69
2022-12-01T10:03:40.446Z,102477.81
2022-12-01T10:08:51.411Z,102484.00
2022-12-01T10:13:54.000Z,102471.84
2022-12-01T10:19:02.319Z,102465.06
2022-12-01T10:24:23.568Z,102459.47
2022-12-01T10:29:32.843Z,102432.41
2022-12-01T10:34:38.569Z,102457.34
2022-12-01T10:39:46.271Z,102448.69
2022-12-01T10:44:50.624Z,102447.88
2022-12-01T10:49:53.707Z,102452.00
2022-12-01T10:54:57.789Z,102455.25
2022-12-01T11:00:02.603Z,102456.06
2022-12-01T11:05:07.562Z,102454.56
2022-12-01T11:10:20.357Z,102456.25
2022-12-01T11:15:26.245Z,102456.47
2022-12-01T11:20:35.208Z,102445.81
2022-12-01T11:25:39.295Z,102447.56
2022-12-01T11:30:41.868Z,102444.13
2022-12-01T11:35:49.866Z,102441.53
2022-12-01T11:40:56.122Z,102437.88
2022-12-01T11:46:01.886Z,102441.50
2022-12-01T11:51:09.128Z,102422.38
2022-12-01T11:56:19.524Z,102420.84
2022-12-01T12:01:35.669Z,102409.59
2022-12-01T12:06:47.927Z,102432.00
2022-12-01T12:11:59.570Z,102436.19
2022-12-01T12:17:28.905Z,102428.53
2022-12-01T12:22:42.633Z,102425.03
2022-12-01T12:27:57.103Z,102416.28
2022-12-01T12:33:18.979Z,102417.94
2022-12-01T12:38:41.460Z,102416.16
2022-12-01T12:43:55.344Z,102407.38
2022-12-01T12:49:20.479Z,102401.38
2022-12-01T12:54:29.848Z,102399.47
2022-12-01T12:59:40.483Z,102394.41
2022-12-01T13:04:49.938Z,102401.25
2022-12-01T13:10:00.822Z,102392.56
2022-12-01T13:15:16.267Z,102398.41
2022-12-01T13:20:22.114Z,102391.53
2022-12-01T13:25:29.160Z,102369.69
2022-12-01T13:30:33.188Z,102378.97
2022-12-01T13:35:38.471Z,102369.19
2022-12-01T13:40:41.058Z,102375.41
2022-12-01T13:45:45.052Z,102365.84
2022-12-01T13:50:59.347Z,102374.63
2022-12-01T13:56:27.603Z,102378.13
2022-12-01T14:01:48.687Z,102369.47
2022-12-01T14:07:34.801Z,102369.44
2022-12-01T14:12:41.474Z,102366.81
2022-12-01T14:17:46.082Z,102368.63
2022-12-01T14:23:02.907Z,102373.16
2022-12-01T14:28:14.628Z,102373.34
2022-12-01T14:33:47.409Z,102373.25
2022-12-01T14:38:51.911Z,102372.47
2022-12-01T14:44:04.767Z,102345.78
2022-12-01T14:49:12.631Z,102377.00
2022-12-01T15:00:05.841Z,102380.56
2022-12-01T15:05:13.820Z,102375.31
2022-12-01T15:10:18.558Z,102319.13
2022-12-01T15:15:24.451Z,102369.16
2022-12-01T15:20:34.732Z,102370.88
2022-12-01T15:25:37.390Z,102362.41
2022-12-01T15:30:55.323Z,102376.38
2022-12-01T15:36:15.328Z,102378.19
2022-12-01T15:47:00.094Z,102387.84
2022-12-01T15:52:10.099Z,102398.56
2022-12-01T15:57:18.891Z,102391.34
2022-12-01T16:02:26.830Z,102393.22
2022-12-01T16:08:11.025Z,102392.16
2022-12-01T16:13:46.945Z,102396.09
2022-12-01T16:18:54.513Z,102365.38
2022-12-01T16:24:02.773Z,102372.84
2022-12-01T16:29:19.228Z,102222.59
2022-12-01T16:34:44.838Z,102372.16
2022-12-01T16:39:48.073Z,102350.38
2022-12-01T16:44:51.804Z,102371.09
2022-12-01T16:49:54.671Z,102372.72
2022-12-01T16:54:58.796Z,102362.31
2022-12-01T17:00:01.328Z,102369.19
2022-12-01T17:05:04.367Z,102374.44
2022-12-01T17:10:10.007Z,102379.81
2022-12-01T17:15:13.547Z,102372.03
2022-12-01T17:20:19.949Z,102388.47
2022-12-01T17:25:25.167Z,102394.56
2022-12-01T17:30:27.972Z,102404.16
2022-12-01T17:35:30.622Z,102411.19
2022-12-01T17:40:34.791Z,102394.88
2022-12-01T17:45:42.178Z,102400.66
2022-12-01T17:50:45.140Z,102409.53
2022-12-01T17:55:48.989Z,102399.84
2022-12-01T18:00:53.068Z,102390.41
2022-12-01T18:05:57.085Z,102417.28
2022-12-01T18:11:03.506Z,102402.81
2022-12-01T18:16:09.856Z,102411.63
2022-12-01T18:21:15.398Z,102407.84
2022-12-01T18:26:20.452Z,102410.44
2022-12-01T18:31:23.158Z,102418.22
2022-12-01T18:36:26.996Z,102392.28
2022-12-01T18:41:31.158Z,102400.03
2022-12-01T18:46:34.143Z,102408.66
2022-12-01T18:51:38.531Z,102389.34
2022-12-01T18:56:42.996Z,102393.66
2022-12-01T19:01:46.353Z,102390.19
2022-12-01T19:06:48.980Z,102351.38
2022-12-01T19:11:59.540Z,102388.28
2022-12-01T19:17:02.105Z,102330.38
2022-12-01T19:22:04.777Z,102383.25
2022-12-01T19:27:08.698Z,102378.00
2022-12-01T19:32:11.481Z,102385.75
2022-12-01T19:37:14.446Z,102377.41
2022-12-01T19:42:18.363Z,102379.91
2022-12-01T19:47:22.542Z,102368.78
2022-12-01T19:52:25.340Z,102373.88
2022-12-01T19:57:29.282Z,102385.31
2022-12-01T20:02:31.887Z,102387.19
2022-12-01T20:07:36.725Z,102390.72
2022-12-01T20:12:40.666Z,102392.59
2022-12-01T20:17:44.063Z,102397.94
2022-12-01T20:22:46.596Z,102393.41
2022-12-01T20:27:50.505Z,102400.59
2022-12-01T20:32:53.063Z,102390.16
2022-12-01T20:37:55.603Z,102397.19
2022-12-01T20:43:00.657Z,102398.78
2022-12-01T20:48:03.237Z,102397.13
2022-12-01T20:53:05.986Z,102398.75
2022-12-01T20:58:09.935Z,102397.19
2022-12-01T21:03:13.333Z,102391.75
2022-12-01T21:08:16.113Z,102385.91
2022-12-01T21:13:42.765Z,102362.59
2022-12-01T21:18:51.674Z,102373.84
2022-12-01T21:24:14.166Z,102370.34
2022-12-01T21:29:21.047Z,102375.53
2022-12-01T21:34:26.234Z,102364.41
2022-12-01T21:39:31.018Z,102384.25
2022-12-01T21:44:39.333Z,102351.53
2022-12-01T21:49:42.191Z,102367.03
2022-12-01T21:54:47.778Z,102368.63
2022-12-01T21:59:52.907Z,102352.25
2022-12-01T22:04:55.633Z,102340.84
2022-12-01T22:09:58.149Z,102344.41
2022-12-01T22:15:02.688Z,102340.97
2022-12-01T22:20:21.775Z,102336.81
2022-12-01T22:25:29.368Z,102341.78
2022-12-01T22:30:33.490Z,102336.69
2022-12-01T22:35:39.777Z,102337.84
2022-12-01T22:40:54.629Z,102340.44
2022-12-01T22:46:28.896Z,102339.63
2022-12-01T22:51:37.539Z,102335.31
2022-12-01T22:56:42.273Z,102324.88
2022-12-01T23:01:50.878Z,102312.59
2022-12-01T23:07:02.924Z,102324.00
2022-12-01T23:12:33.779Z,102323.84
2022-12-01T23:17:40.452Z,102320.59
2022-12-01T23:22:42.991Z,102331.88
2022-12-01T23:27:50.685Z,102234.13
2022-12-01T23:33:02.524Z,102311.03
2022-12-01T23:38:05.040Z,102314.59
2022-12-01T23:43:16.446Z,102315.41
2022-12-01T23:48:23.706Z,102310.00
2022-12-01T23:53:29.317Z,102306.66
2022-12-01T23:58:31.878Z,102313.78
